createdAt,value
2023-06-25T00:01:44.624Z,99389.63
2023-06-25T00:06:52.546Z,99377.03
2023-06-25T00:11:57.744Z,99376.13
2023-06-25T00:17:04.701Z,99380.91
2023-06-25T00:22:12.647Z,99365.13
2023-06-25T00:27:17.992Z,99374.59
2023-06-25T00:32:25.571Z,99358.28
2023-06-25T00:37:38.145Z,99368.50
2023-06-25T00:42:45.163Z,99367.06
2023-06-25T00:47:50.771Z,99375.53
2023-06-25T00:52:59.789Z,99371.16
2023-06-25T00:58:06.364Z,99360.13
2023-06-25T01:03:28.455Z,99356.19
2023-06-25T01:08:38.967Z,99364.72
2023-06-25T01:13:44.582Z,99370.69
2023-06-25T01:24:04.279Z,99353.38
2023-06-25T01:29:09.447Z,99366.31
2023-06-25T01:34:14.712Z,99363.91
2023-06-25T01:39:23.476Z,99369.00
2023-06-25T01:44:33.084Z,99352.72
2023-06-25T01:49:39.171Z,99350.34
2023-06-25T01:54:47.521Z,99342.28
2023-06-25T01:59:54.184Z,99352.81
2023-06-25T02:04:59.554Z,99343.03
2023-06-25T02:10:08.288Z,99347.31
2023-06-25T02:15:14.028Z,99344.63
2023-06-25T02:20:20.871Z,99332.31
2023-06-25T02:25:28.597Z,99328.09
2023-06-25T02:30:33.825Z,99330.91
2023-06-25T02:35:39.496Z,99310.13
2023-06-25T02:40:48.413Z,99314.50
2023-06-25T02:45:53.864Z,99322.34
2023-06-25T02:51:00.147Z,99314.63
2023-06-25T02:56:11.229Z,99326.94
2023-06-25T03:01:16.664Z,99316.53
2023-06-25T03:06:22.064Z,99316.38
2023-06-25T03:11:29.936Z,99325.09
2023-06-25T03:16:35.411Z,99329.50
2023-06-25T03:21:40.613Z,99319.84
2023-06-25T03:26:48.557Z,99317.44
2023-06-25T03:31:54.161Z,99301.38
2023-06-25T03:37:03.394Z,99306.78
2023-06-25T03:42:15.361Z,99313.50
2023-06-25T03:47:20.839Z,99309.75
2023-06-25T03:52:26.514Z,99313.97
2023-06-25T03:57:37.410Z,99309.72
2023-06-25T04:02:44.051Z,99307.75
2023-06-25T04:07:51.024Z,99288.34
2023-06-25T04:12:59.033Z,99291.66
2023-06-25T04:18:04.533Z,99300.81
2023-06-25T04:23:09.908Z,99302.25
2023-06-25T04:28:20.198Z,99293.25
2023-06-25T04:33:26.415Z,99287.56
2023-06-25T04:38:32.407Z,99283.09
2023-06-25T04:43:40.753Z,99291.50
2023-06-25T04:48:52.386Z,99282.41
2023-06-25T04:53:58.144Z,99276.41
2023-06-25T04:59:05.908Z,99283.09
2023-06-25T05:04:11.152Z,99277.19
2023-06-25T05:09:16.472Z,99273.19
2023-06-25T05:14:27.014Z,99283.88
2023-06-25T05:19:32.204Z,99275.84
2023-06-25T05:24:38.871Z,99284.31
2023-06-25T05:29:46.687Z,99285.22
2023-06-25T05:34:51.827Z,99280.66
2023-06-25T05:39:57.042Z,99290.47
2023-06-25T05:45:04.931Z,99270.91
2023-06-25T05:50:11.026Z,99272.63
2023-06-25T05:55:16.193Z,99282.19
2023-06-25T06:00:24.752Z,99276.91
2023-06-25T06:05:29.865Z,99280.78
2023-06-25T06:10:36.244Z,99274.03
2023-06-25T06:15:44.349Z,99267.44
2023-06-25T06:20:51.808Z,99276.78
2023-06-25T06:25:57.185Z,99269.75
2023-06-25T06:31:05.284Z,99270.50
2023-06-25T06:36:10.712Z,99278.31
2023-06-25T06:41:16.585Z,99281.84
2023-06-25T06:46:26.834Z,99280.63
2023-06-25T06:51:31.963Z,99266.16
2023-06-25T06:56:38.515Z,99263.75
2023-06-25T07:01:46.386Z,99259.19
2023-06-25T07:06:51.902Z,99268.94
2023-06-25T07:11:57.745Z,99260.19
2023-06-25T07:17:05.460Z,99257.56
2023-06-25T07:22:10.881Z,99257.22
2023-06-25T07:27:16.282Z,99256.13
2023-06-25T07:32:26.314Z,99253.31
2023-06-25T07:37:31.807Z,99258.47
2023-06-25T07:42:37.004Z,99243.06
2023-06-25T07:47:46.143Z,99250.38
2023-06-25T07:52:51.329Z,99242.06
2023-06-25T07:57:56.590Z,99250.59
2023-06-25T08:03:04.945Z,99247.91
2023-06-25T08:08:10.124Z,99242.41
2023-06-25T08:13:16.253Z,99245.53
2023-06-25T08:18:24.077Z,99252.50
2023-06-25T08:23:29.304Z,99251.66
2023-06-25T08:28:34.518Z,99249.06
2023-06-25T08:33:43.015Z,99239.31
2023-06-25T08:38:48.318Z,99247.50
2023-06-25T08:43:56.174Z,99239.44
2023-06-25T08:49:06.584Z,99250.38
2023-06-25T08:54:12.773Z,99244.97
2023-06-25T08:59:17.977Z,99241.91
2023-06-25T09:04:26.224Z,99251.00
2023-06-25T09:09:31.345Z,99229.81
2023-06-25T09:14:39.519Z,99227.38
2023-06-25T09:19:49.725Z,99233.00
2023-06-25T09:24:55.034Z,99230.19
2023-06-25T09:30:00.783Z,99231.50
2023-06-25T09:35:13.300Z,99225.25
2023-06-25T09:40:20.050Z,99224.50
2023-06-25T09:45:26.480Z,99223.75
2023-06-25T09:50:37.889Z,99215.41
2023-06-25T09:55:44.310Z,99206.31
2023-06-25T10:00:50.369Z,99210.53
2023-06-25T10:05:58.958Z,99199.53
2023-06-25T10:11:05.832Z,99206.03
2023-06-25T10:16:11.046Z,99185.97
2023-06-25T10:21:26.485Z,99196.78
2023-06-25T10:26:33.121Z,99189.41
2023-06-25T10:31:44.597Z,99190.50
2023-06-25T10:36:56.029Z,99185.19
2023-06-25T10:42:05.059Z,99185.53
2023-06-25T10:47:13.499Z,99178.16
2023-06-25T10:52:21.992Z,99177.16
2023-06-25T10:57:30.010Z,99169.72
2023-06-25T11:02:36.128Z,99163.38
2023-06-25T11:07:43.962Z,99158.94
2023-06-25T11:12:49.307Z,99157.94
2023-06-25T11:17:55.592Z,99148.47
2023-06-25T11:23:03.872Z,99146.13
2023-06-25T11:28:12.762Z,99135.47
2023-06-25T11:33:19.545Z,99136.41
2023-06-25T11:38:33.849Z,99137.94
2023-06-25T11:43:42.030Z,99135.78
2023-06-25T11:48:51.805Z,99138.13
2023-06-25T11:54:01.406Z,99139.81
2023-06-25T11:59:08.249Z,99121.97
2023-06-25T12:04:13.461Z,99128.22
2023-06-25T12:09:22.565Z,99122.38
2023-06-25T12:14:27.739Z,99120.28
2023-06-25T12:19:33.052Z,99111.72
2023-06-25T12:24:40.879Z,99108.91
2023-06-25T12:29:46.043Z,99100.16
2023-06-25T12:34:51.149Z,99096.13
2023-06-25T12:39:58.950Z,99091.34
2023-06-25T12:45:04.146Z,99090.53
2023-06-25T12:50:12.506Z,99082.47
2023-06-25T12:55:20.570Z,99070.72
2023-06-25T13:00:41.086Z,99080.47
2023-06-25T13:05:52.206Z,99075.16
2023-06-25T13:11:00.032Z,99069.22
2023-06-25T13:16:05.208Z,99066.88
2023-06-25T13:21:10.605Z,99068.19
2023-06-25T13:26:18.499Z,99055.75
2023-06-25T13:31:24.586Z,99065.69
2023-06-25T13:36:30.572Z,99061.44
2023-06-25T13:41:38.397Z,99049.13
2023-06-25T13:46:43.611Z,99043.44
2023-06-25T13:51:48.844Z,99043.91
2023-06-25T13:56:57.109Z,99042.69
2023-06-25T14:02:02.973Z,99035.50
2023-06-25T14:07:08.820Z,99035.94
2023-06-25T14:12:17.090Z,99040.28
2023-06-25T14:17:22.869Z,99029.53
2023-06-25T14:22:28.124Z,99024.09
2023-06-25T14:27:36.147Z,99028.59
2023-06-25T14:32:41.493Z,99024.81
2023-06-25T14:37:46.872Z,99026.16
2023-06-25T14:42:55.992Z,99005.69
2023-06-25T14:48:01.125Z,99024.00
2023-06-25T14:53:10.488Z,99010.03
2023-06-25T14:58:18.345Z,99008.94
2023-06-25T15:03:24.290Z,99005.97
2023-06-25T15:08:31.044Z,98988.59
2023-06-25T15:13:40.142Z,98994.75
2023-06-25T15:18:45.459Z,98988.44
2023-06-25T15:23:52.286Z,98981.63
2023-06-25T15:29:00.205Z,98980.81
2023-06-25T15:34:09.287Z,98984.00
2023-06-25T15:39:14.499Z,98976.81
2023-06-25T15:44:22.277Z,98967.19
2023-06-25T15:49:27.813Z,98963.03
2023-06-25T15:54:32.968Z,98964.16
2023-06-25T15:59:42.874Z,98950.84
2023-06-25T16:04:50.654Z,98954.97
2023-06-25T16:10:00.210Z,98953.22
2023-06-25T16:15:09.141Z,98944.38
2023-06-25T16:20:14.812Z,98937.19
2023-06-25T16:25:20.236Z,98928.09
2023-06-25T16:30:31.682Z,98918.31
2023-06-25T16:35:39.702Z,98913.56
2023-06-25T16:40:46.166Z,98926.88
2023-06-25T16:45:53.941Z,98917.31
2023-06-25T16:50:59.087Z,98912.53
2023-06-25T16:56:04.175Z,98908.94
2023-06-25T17:01:14.821Z,98914.84
2023-06-25T17:06:21.518Z,98916.75
2023-06-25T17:11:27.665Z,98908.63
2023-06-25T17:16:35.573Z,98914.00
2023-06-25T17:21:41.949Z,98910.69
2023-06-25T17:26:47.888Z,98916.69
2023-06-25T17:32:00.116Z,98906.78
2023-06-25T17:37:07.797Z,98908.06
2023-06-25T17:42:15.301Z,98905.81
2023-06-25T17:47:23.566Z,98905.44
2023-06-25T17:52:30.443Z,98906.97
2023-06-25T17:57:35.801Z,98901.53
2023-06-25T18:02:43.727Z,98898.00
2023-06-25T18:07:48.950Z,98897.69
2023-06-25T18:12:54.058Z,98897.72
2023-06-25T18:18:01.823Z,98906.28
2023-06-25T18:23:07.106Z,98896.97
2023-06-25T18:28:12.523Z,98892.25
2023-06-25T18:33:20.310Z,98893.03
2023-06-25T18:38:25.513Z,98909.00
2023-06-25T18:43:31.880Z,98905.53
2023-06-25T18:48:40.077Z,98905.16
2023-06-25T18:53:45.221Z,98903.63
2023-06-25T18:58:50.279Z,98898.53
2023-06-25T19:03:58.941Z,98900.84
2023-06-25T19:09:04.501Z,98890.38
2023-06-25T19:14:09.814Z,98900.06
2023-06-25T19:19:18.292Z,98897.34
2023-06-25T19:24:24.594Z,98900.75
2023-06-25T19:29:30.623Z,98898.31
2023-06-25T19:34:38.500Z,98909.81
2023-06-25T19:39:43.486Z,98906.69
2023-06-25T19:44:48.910Z,98910.56
2023-06-25T19:49:57.934Z,98910.03
2023-06-25T19:55:04.033Z,98911.09
2023-06-25T20:00:11.506Z,98918.91
2023-06-25T20:05:23.456Z,98911.75
2023-06-25T20:10:28.791Z,98915.63
2023-06-25T20:15:33.967Z,98903.41
2023-06-25T20:20:41.678Z,98909.84
2023-06-25T20:25:46.769Z,98901.78
2023-06-25T20:30:51.909Z,98912.69
2023-06-25T20:36:00.676Z,98912.66
2023-06-25T20:41:23.236Z,98902.75
2023-06-25T20:46:31.626Z,98903.75
2023-06-25T20:51:39.440Z,98908.44
2023-06-25T20:56:44.751Z,98911.31
2023-06-25T21:01:49.896Z,98917.59
2023-06-25T21:06:57.641Z,98923.44
2023-06-25T21:12:02.854Z,98924.28
2023-06-25T21:17:08.430Z,98921.31
2023-06-25T21:22:16.273Z,98921.50
2023-06-25T21:27:21.415Z,98928.53
2023-06-25T21:32:26.872Z,98919.00
2023-06-25T21:37:36.907Z,98925.19
2023-06-25T21:42:42.095Z,98921.09
2023-06-25T21:47:47.387Z,98924.69
2023-06-25T21:52:55.239Z,98916.97
2023-06-25T21:58:00.456Z,98917.56
2023-06-25T22:03:05.875Z,98915.41
2023-06-25T22:08:13.824Z,98923.53
2023-06-25T22:13:19.986Z,98917.63
2023-06-25T22:18:25.096Z,98905.81
2023-06-25T22:23:35.303Z,98921.03
2023-06-25T22:28:40.584Z,98919.66
2023-06-25T22:33:45.749Z,98913.41
2023-06-25T22:38:53.552Z,98911.47
2023-06-25T22:43:58.901Z,98916.41
2023-06-25T22:49:04.685Z,98916.88
2023-06-25T22:54:12.547Z,98902.78
2023-06-25T22:59:18.098Z,98917.78
2023-06-25T23:04:23.322Z,98912.84
2023-06-25T23:09:34.832Z,98906.91
2023-06-25T23:14:39.990Z,98900.97
2023-06-25T23:19:45.918Z,98902.34
2023-06-25T23:24:53.732Z,98897.22
2023-06-25T23:29:59.587Z,98886.75
2023-06-25T23:35:04.893Z,98895.91
2023-06-25T23:40:14.286Z,98878.63
2023-06-25T23:45:19.562Z,98886.28
2023-06-25T23:50:25.430Z,98884.56
2023-06-25T23:55:33.324Z,98877.00
